METAR Data
IDs: Format: Raw Decoded Include TAF

Data at: 0121 UTC 20 Sep 2020

KVTI 200115Z AUTO 13005KT 10SM CLR 15/08 A3024 RMK AO2 T01460075
KVTI 200055Z AUTO 13005KT 10SM CLR 15/07 A3023 RMK AO2 T01510074
KVTI 200035Z AUTO 13005KT 10SM CLR 16/08 A3023 RMK AO2 T01600080
KVTI 200015Z AUTO 15004KT 10SM CLR 16/07 A3023 RMK AO2 T01600071
KVTI 192355Z AUTO 15005KT 10SM CLR 18/07 A3023 RMK AO2 T01750074 10216 20175
KVTI 192335Z AUTO 15004KT 10SM CLR 19/07 A3023 RMK AO2 T01880073
KVTI 192315Z AUTO 15006KT 10SM CLR 20/08 A3023 RMK AO2 T02020076
KVTI 192255Z AUTO 14007KT 10SM CLR 20/07 A3024 RMK AO2 T02030068
KVTI 192235Z AUTO 15008KT 10SM CLR 22/08 A3023 RMK AO2 T02160076
KVTI 192215Z AUTO 17008KT 10SM CLR 22/07 A3024 RMK AO2 T02160071
KVTI 192155Z AUTO 17006KT 10SM CLR 22/07 A3024 RMK AO2 T02160066
KVTI 192135Z AUTO 16006KT 10SM CLR 22/07 A3024 RMK AO2 T02160067
KVTI 192115Z AUTO 17008KT 10SM CLR 22/07 A3025 RMK AO2 T02160066
KVTI 192035Z AUTO 16010KT 10SM CLR 22/07 A3026 RMK AO2 T02160067
KVTI 192015Z AUTO 17009KT 10SM CLR 22/07 A3026 RMK AO2 T02160068
KVTI 191955Z AUTO 16008G14KT 130V190 10SM CLR 22/07 A3027 RMK AO2 T02160069
KVTI 191935Z AUTO 16008KT 10SM CLR 22/08 A3028 RMK AO2 T02160075
KVTI 191915Z AUTO 17009KT 10SM CLR 22/08 A3029 RMK AO2 T02160077
KVTI 191855Z AUTO 17006KT 10SM CLR 22/08 A3030 RMK AO2 T02160078
KVTI 191835Z AUTO 15008KT 10SM CLR 22/08 A3031 RMK AO2 T02160081
KVTI 191815Z AUTO 16008G14KT 10SM CLR 20/07 A3032 RMK AO2 T02020069
KVTI 191755Z AUTO 15010KT 10SM CLR 20/07 A3032 RMK AO2 T02020071 10202 20070
KVTI 191735Z AUTO 16009KT 10SM CLR 20/07 A3033 RMK AO2 T02020071
KVTI 191715Z AUTO 17011KT 10SM CLR 19/06 A3033 RMK AO2 T01880057
KVTI 191655Z AUTO 16010G14KT 10SM CLR 19/06 A3034 RMK AO2 T01880057
KVTI 191635Z AUTO 16009KT 10SM CLR 18/05 A3035 RMK AO2 T01760048
KVTI 191615Z AUTO 17009KT 10SM CLR 18/05 A3035 RMK AO2 T01750049
KVTI 191555Z AUTO 15012KT 10SM CLR 17/05 A3035 RMK AO2 T01670045
KVTI 191535Z AUTO 16009KT 10SM CLR 16/05 A3036 RMK AO2 T01600048
KVTI 191515Z AUTO 17009KT 10SM CLR 16/05 A3036 RMK AO2 T01600052
KVTI 191455Z AUTO 17007KT 10SM CLR 15/06 A3036 RMK AO2 T01460056
KVTI 191435Z AUTO 16007KT 10SM CLR 13/05 A3036 RMK AO2 T01320054
KVTI 191415Z AUTO 15007KT 10SM CLR 13/07 A3036 RMK AO2 T01320067
KVTI 191355Z AUTO 16006KT 10SM CLR 12/06 A3036 RMK AO2 T01180059
KVTI 191335Z AUTO 16009KT 10SM CLR 11/06 A3035 RMK AO2 T01100058
KVTI 191315Z AUTO 15006KT 10SM CLR 11/07 A3035 RMK AO2 T01050069
KVTI 191255Z AUTO 15004KT 10SM CLR 09/07 A3036 RMK AO2 T00900066
KVTI 191235Z AUTO 12005KT 10SM CLR 08/06 A3036 RMK AO2 T00750062
KVTI 191215Z AUTO 12006KT 10SM CLR 07/06 A3035 RMK AO2 T00710059
KVTI 191155Z AUTO 13006KT 10SM CLR 07/05 A3035 RMK AO2 T00710054 10105 20070
KVTI 191135Z AUTO 14004KT 10SM CLR 07/05 A3035 RMK AO2 T00740052
KVTI 191115Z AUTO 16003KT 10SM CLR 08/05 A3035 RMK AO2 T00750052
KVTI 191055Z AUTO 14005KT 10SM CLR 09/07 A3035 RMK AO2 T00900065
KVTI 191035Z AUTO 15005KT 10SM CLR 09/06 A3034 RMK AO2 T00910061
KVTI 191015Z AUTO 16006KT 10SM CLR 11/08 A3033 RMK AO2 T01050075
KVTI 190955Z AUTO 15006KT 10SM CLR 11/08 A3033 RMK AO2 T01050075
KVTI 190935Z AUTO 15006KT 10SM CLR 11/08 A3033 RMK AO2 T01050076
KVTI 190915Z AUTO 14006KT 10SM CLR 11/08 A3033 RMK AO2 T01050080
KVTI 190855Z AUTO 14006KT 10SM CLR 11/08 A3033 RMK AO2 T01050077
KVTI 190835Z AUTO 14006KT 10SM CLR 11/08 A3033 RMK AO2 T01050080
KVTI 190815Z AUTO 14005KT 10SM CLR 11/09 A3033 RMK AO2 T01050088
KVTI 190755Z AUTO 14005KT 10SM CLR 11/09 A3033 RMK AO2 T01050092
KVTI 190735Z AUTO 14004KT 10SM CLR 11/10 A3034 RMK AO2 T01050095
KVTI 190715Z AUTO 00000KT 10SM CLR 11/10 A3034 RMK AO2 T01050095
KVTI 190655Z AUTO 00000KT 10SM CLR 11/10 A3034 RMK AO2 T01050097
KVTI 190635Z AUTO 00000KT 10SM CLR 11/10 A3034 RMK AO2 T01050097
KVTI 190615Z AUTO 00000KT 10SM SCT050 11/09 A3034 RMK AO2 T01050087
KVTI 190555Z AUTO 13004KT 10SM SCT050 11/09 A3034 RMK AO2 T01050093 10161 20105 402160061
KVTI 190535Z AUTO 00000KT 10SM CLR 11/09 A3035 RMK AO2 T01050094
KVTI 190515Z AUTO 13003KT 10SM CLR 11/09 A3034 RMK AO2 T01050092
KVTI 190455Z AUTO 00000KT 10SM CLR 11/09 A3035 RMK AO2 T01050085
KVTI 190435Z AUTO 12003KT 10SM CLR 11/09 A3034 RMK AO2 T01050085
KVTI 190415Z AUTO 12004KT 10SM CLR 11/08 A3034 RMK AO2 T01050082
KVTI 190355Z AUTO 00000KT 10SM CLR 11/09 A3034 RMK AO2 T01050092
KVTI 190335Z AUTO 00000KT 10SM CLR 11/08 A3034 RMK AO2 T01050082
KVTI 190315Z AUTO 11003KT 10SM CLR 11/08 A3034 RMK AO2 T01050079
KVTI 190255Z AUTO 11003KT 10SM CLR 11/08 A3033 RMK AO2 T01120083
KVTI 190235Z AUTO 11004KT 10SM CLR 12/09 A3033 RMK AO2 T01180085
KVTI 190215Z AUTO 09005KT 10SM CLR 13/09 A3033 RMK AO2 T01320092
KVTI 190155Z AUTO 09005KT 10SM CLR 13/09 A3032 RMK AO2 T01250088
KVTI 190135Z AUTO 09006KT 10SM CLR 12/09 A3032 RMK AO2 T01180086
KVTI 190115Z AUTO 08005KT 10SM CLR 13/09 A3031 RMK AO2 T01320091
KVTI 190055Z AUTO 08005KT 10SM CLR 13/09 A3032 RMK AO2 T01320085
KVTI 190035Z AUTO 08005KT 10SM CLR 15/08 A3031 RMK AO2 T01460083
KVTI 190015Z AUTO 07004KT 10SM CLR 15/08 A3031 RMK AO2 T01490078
KVTI 182355Z AUTO 08004KT 10SM CLR 16/08 A3030 RMK AO2 T01640075 10216 20164
KVTI 182335Z AUTO 07007KT 10SM CLR 18/07 A3030 RMK AO2 T01750071
KVTI 182315Z AUTO 10005KT 10SM CLR 19/07 A3030 RMK AO2 T01870071
KVTI 182255Z AUTO 09007KT 10SM CLR 19/06 A3030 RMK AO2 T01880063
KVTI 182235Z AUTO 10005KT 10SM SCT060 19/07 A3030 RMK AO2 T01880066
KVTI 182215Z AUTO 07005KT 10SM BKN060 20/07 A3031 RMK AO2 T02000071
KVTI 182155Z AUTO 09006KT 10SM BKN060 19/07 A3031 RMK AO2 T01880066
KVTI 182135Z AUTO 10005KT 10SM SCT060 19/06 A3031 RMK AO2 T01880064
KVTI 182115Z AUTO 08004KT 10SM BKN060 19/06 A3032 RMK AO2 T01880059
KVTI 182055Z AUTO 00000KT 10SM SCT060 19/06 A3032 RMK AO2 T01880064
KVTI 182035Z AUTO 11005KT 10SM SCT050 19/07 A3032 RMK AO2 T01880067
KVTI 182015Z AUTO 10007KT 10SM SCT050 19/07 A3033 RMK AO2 T01880067
KVTI 181955Z AUTO 11004KT 10SM SCT050 19/07 A3034 RMK AO2 T01880065
KVTI 181935Z AUTO 11006KT 10SM SCT050 22/07 A3034 RMK AO2 T02160074
KVTI 181915Z AUTO 10005KT 10SM SCT050 21/08 A3035 RMK AO2 T02110084
KVTI 181855Z AUTO 10005KT 10SM SCT050 18/07 A3036 RMK AO2 T01750071
KVTI 181835Z AUTO 15006KT 10SM SCT050 21/08 A3036 RMK AO2 T02050081
KVTI 181815Z AUTO 12006KT 10SM CLR 17/08 A3037 RMK AO2 T01730075
KVTI 181755Z AUTO 12004KT 10SM SCT039 SCT046 18/08 A3037 RMK AO2 T01820075 10189 20061
KVTI 181735Z AUTO 11007KT 10SM SCT035 BKN046 19/08 A3038 RMK AO2 T01890079
KVTI 181715Z AUTO 10006KT 10SM BKN033 17/08 A3039 RMK AO2 T01670081
KVTI 181655Z AUTO 10004KT 10SM SCT031 18/08 A3039 RMK AO2 T01750081
KVTI 181635Z AUTO 10006KT 10SM CLR 17/08 A3040 RMK AO2 T01690082
KVTI 181615Z AUTO 09009KT 10SM CLR 16/08 A3040 RMK AO2 T01610080
KVTI 181535Z AUTO 06008KT 10SM BKN032 15/08 A3040 RMK AO2 T01460084
KVTI 181515Z AUTO 07007KT 10SM BKN029 15/09 A3040 RMK AO2 T01450085
KVTI 181455Z AUTO 08007KT 10SM BKN025 13/08 A3040 RMK AO2 T01320080
KVTI 181435Z AUTO 06006KT 10SM SCT023 13/08 A3039 RMK AO2 T01320082
KVTI 181415Z AUTO 05007KT 10SM CLR 12/08 A3038 RMK AO2 T01180077
KVTI 181355Z AUTO 04007KT 10SM CLR 11/07 A3037 RMK AO2 T01050071
KVTI 181335Z AUTO 03005KT 10SM CLR 11/08 A3037 RMK AO2 T01050075